Time;durP1;ratioP1;P1;durP2;ratioP2;P2;SDS_P1;SDS_P2;PMS_P1;PMS_P2;Temp;Humidity;BMP_temperature;BMP_pressure;BME280_temperature;BME280_humidity;BME280_pressure;Samples;Min_cycle;Max_cycle;Signal;HPM_P1;HPM_P2
2022/12/29 00:02:14;;;;;;;2.00;1.13;;;10.80;99.90;;;;;;2611108;54;20424;-75
2022/12/29 00:04:39;;;;;;;2.17;1.17;;;10.80;99.90;;;;;;2611001;39;20571;-75
2022/12/29 00:07:06;;;;;;;2.33;1.57;;;10.80;99.90;;;;;;2614070;54;20419;-77
2022/12/29 00:09:32;;;;;;;1.97;1.20;;;10.90;99.90;;;;;;2613380;54;20169;-77
2022/12/29 00:11:58;;;;;;;2.30;1.20;;;10.90;99.90;;;;;;2614919;54;20419;-85
2022/12/29 00:17:08;;;;;;;2.10;1.30;;;10.90;99.90;;;;;;2616992;54;20547;-85
2022/12/29 00:36:18;;;;;;;2.30;1.27;;;10.40;99.90;;;;;;2613478;54;20418;-77
2022/12/29 00:44:17;;;;;;;1.73;1.00;;;10.40;99.90;;;;;;2613932;54;20423;-77
2022/12/29 00:46:43;;;;;;;3.47;0.97;;;10.40;99.90;;;;;;2614661;47;20444;-77
2022/12/29 00:51:57;;;;;;;4.33;1.40;;;10.60;99.90;;;;;;2613581;46;20430;-77
2022/12/29 00:54:23;;;;;;;3.53;1.37;;;10.60;99.90;;;;;;2613494;54;20436;-77
2022/12/29 00:56:50;;;;;;;2.97;1.47;;;10.50;99.90;;;;;;2613369;47;20574;-85
2022/12/29 00:59:17;;;;;;;2.70;1.27;;;10.50;99.90;;;;;;2613856;39;21078;-85
2022/12/29 01:01:43;;;;;;;2.87;1.30;;;10.50;99.90;;;;;;2614747;54;20419;-76
2022/12/29 01:04:10;;;;;;;4.57;1.60;;;10.50;99.90;;;;;;2611860;54;20403;-75
2022/12/29 01:06:38;;;;;;;2.50;1.20;;;10.50;99.90;;;;;;2612840;47;20432;-74
2022/12/29 01:12:02;;;;;;;2.10;1.20;;;10.50;99.90;;;;;;2613408;54;20428;-74
2022/12/29 01:14:28;;;;;;;3.80;1.30;;;10.50;99.90;;;;;;2613090;54;20431;-75
2022/12/29 01:16:55;;;;;;;1.80;1.13;;;10.60;99.90;;;;;;2611926;54;20414;-83
2022/12/29 01:19:21;;;;;;;1.93;1.03;;;10.60;99.90;;;;;;2613394;54;20163;-82
2022/12/29 01:21:47;;;;;;;1.70;1.00;;;10.70;99.90;;;;;;2614256;39;20790;-80
2022/12/29 01:24:15;;;;;;;2.90;1.67;;;10.90;99.90;;;;;;2613448;46;20449;-82
2022/12/29 01:26:40;;;;;;;2.00;1.10;;;10.90;99.90;;;;;;2613643;39;20521;-75
2022/12/29 01:29:06;;;;;;;1.53;0.90;;;10.90;99.90;;;;;;2613260;54;20392;-75
2022/12/29 01:31:32;;;;;;;2.30;1.07;;;11.00;99.90;;;;;;2612720;54;20159;-82
2022/12/29 01:34:00;;;;;;;2.43;1.37;;;11.00;99.90;;;;;;2613378;54;20178;-81
2022/12/29 01:36:26;;;;;;;4.30;1.33;;;11.10;99.90;;;;;;2614002;54;20186;-81
2022/12/29 01:38:51;;;;;;;1.90;0.80;;;11.20;99.90;;;;;;2613570;47;20426;-79
2022/12/29 01:41:18;;;;;;;2.73;1.23;;;11.20;99.90;;;;;;2613126;54;20657;-77
2022/12/29 01:43:50;;;;;;;4.80;0.97;;;11.20;99.90;;;;;;2613265;54;20775;-78
2022/12/29 01:46:26;;;;;;;3.17;1.23;;;11.10;99.90;;;;;;2612922;47;20419;-74
2022/12/29 01:49:02;;;;;;;2.00;1.00;;;11.30;99.90;;;;;;2613913;54;20466;-75
2022/12/29 01:51:29;;;;;;;1.77;0.90;;;11.20;99.90;;;;;;2612706;47;20419;-75
2022/12/29 01:54:00;;;;;;;1.53;0.70;;;11.20;99.90;;;;;;2613374;54;20463;-75
2022/12/29 01:56:26;;;;;;;2.20;1.07;;;11.30;99.90;;;;;;2613471;54;20430;-77
2022/12/29 01:59:00;;;;;;;1.60;0.83;;;11.20;99.90;;;;;;2613238;54;20455;-78
2022/12/29 02:01:25;;;;;;;3.60;1.20;;;11.30;99.90;;;;;;2614490;54;20155;-77
2022/12/29 02:03:51;;;;;;;2.57;0.83;;;11.40;99.90;;;;;;2611550;54;20503;-77
2022/12/29 02:06:26;;;;;;;2.77;1.00;;;11.40;99.90;;;;;;2614084;54;20313;-83
2022/12/29 02:08:55;;;;;;;1.80;0.97;;;11.30;99.90;;;;;;2614769;54;20438;-83
2022/12/29 02:11:23;;;;;;;2.10;0.90;;;11.40;99.90;;;;;;2615205;54;20404;-84
2022/12/29 02:13:49;;;;;;;1.40;0.73;;;11.40;99.90;;;;;;2614592;54;20474;-84
2022/12/29 02:16:31;;;;;;;1.70;1.00;;;11.40;99.90;;;;;;2614335;54;20446;-79
2022/12/29 02:19:38;;;;;;;1.90;0.90;;;11.30;99.90;;;;;;2612751;54;20181;-79
2022/12/29 02:22:26;;;;;;;2.27;0.87;;;11.30;99.90;;;;;;2613742;54;20468;-76
2022/12/29 02:25:19;;;;;;;2.20;0.90;;;11.40;99.90;;;;;;2612643;54;20964;-75
2022/12/29 02:28:09;;;;;;;1.70;0.80;;;11.50;99.90;;;;;;2613327;54;20431;-76
2022/12/29 02:30:58;;;;;;;1.70;0.80;;;11.40;99.90;;;;;;2612889;47;20412;-76
2022/12/29 02:33:54;;;;;;;2.17;0.90;;;11.50;99.90;;;;;;2611681;54;20420;-76
2022/12/29 02:36:46;;;;;;;1.80;0.83;;;11.50;99.90;;;;;;2612580;54;20472;-75
2022/12/29 02:39:53;;;;;;;2.20;0.90;;;11.60;99.90;;;;;;2611622;54;20446;-76
2022/12/29 02:42:37;;;;;;;2.07;0.83;;;11.80;99.90;;;;;;2612304;46;20458;-76
2022/12/29 02:45:31;;;;;;;2.70;0.90;;;11.60;99.90;;;;;;2611185;54;20431;-75
2022/12/29 02:48:16;;;;;;;2.43;1.00;;;11.70;99.90;;;;;;2612809;54;20431;-83
2022/12/29 02:50:55;;;;;;;1.63;0.80;;;11.80;99.90;;;;;;2611834;54;20404;-76
2022/12/29 02:54:40;;;;;;;1.90;1.03;;;11.90;99.90;;;;;;2612433;54;20435;-77
2022/12/29 02:56:07;;;;;;;2.53;1.60;;;11.70;99.90;;;;;;2611932;54;20442;-83
2022/12/29 02:58:33;;;;;;;2.03;1.20;;;11.80;99.90;;;;;;2613344;54;20435;-82
2022/12/29 03:01:19;;;;;;;1.70;1.00;;;11.90;99.90;;;;;;2612134;54;20200;-77
2022/12/29 03:04:09;;;;;;;2.83;1.57;;;11.80;99.90;;;;;;2612354;39;20554;-77
2022/12/29 03:06:51;;;;;;;1.70;1.00;;;12.00;99.90;;;;;;2612111;54;20444;-74
2022/12/29 03:09:23;;;;;;;2.90;1.13;;;12.00;99.90;;;;;;2612294;47;20444;-73
2022/12/29 03:12:07;;;;;;;2.80;1.20;;;12.00;99.90;;;;;;2611183;54;20411;-75
2022/12/29 03:17:34;;;;;;;2.90;1.57;;;11.60;99.90;;;;;;2612571;54;20561;-77
2022/12/29 03:20:08;;;;;;;3.60;1.53;;;11.70;99.90;;;;;;2614825;54;20435;-77
2022/12/29 03:22:41;;;;;;;2.00;1.00;;;11.70;99.90;;;;;;2613835;54;20427;-74
2022/12/29 03:25:23;;;;;;;1.70;0.93;;;11.80;99.90;;;;;;2613675;46;20963;-74
2022/12/29 03:27:55;;;;;;;2.23;1.17;;;11.90;99.90;;;;;;2613104;46;20431;-74
2022/12/29 03:30:21;;;;;;;2.13;1.10;;;11.90;99.90;;;;;;2614041;54;20426;-75
2022/12/29 03:32:54;;;;;;;3.80;1.13;;;11.90;99.90;;;;;;2612630;54;20412;-74
2022/12/29 03:35:27;;;;;;;1.80;1.00;;;11.90;99.90;;;;;;2613227;54;20419;-77
2022/12/29 03:38:05;;;;;;;1.73;0.90;;;12.00;99.90;;;;;;2614385;54;20539;-77
2022/12/29 03:40:34;;;;;;;1.50;0.80;;;12.00;99.90;;;;;;2612002;54;20514;-76
2022/12/29 03:43:01;;;;;;;3.80;1.20;;;12.00;99.90;;;;;;2611229;54;20462;-76
2022/12/29 03:45:26;;;;;;;2.43;1.07;;;11.90;99.90;;;;;;2613521;54;21352;-83
2022/12/29 03:47:53;;;;;;;2.53;1.40;;;11.80;99.90;;;;;;2614757;54;20426;-84
2022/12/29 03:50:19;;;;;;;2.40;1.20;;;11.80;99.90;;;;;;2614870;39;20567;-82
2022/12/29 03:52:47;;;;;;;2.00;1.00;;;11.70;99.90;;;;;;2614392;46;20445;-82
2022/12/29 03:55:12;;;;;;;2.83;2.03;;;11.50;99.90;;;;;;2614201;39;20690;-74
2022/12/29 03:57:38;;;;;;;1.93;0.97;;;11.50;99.90;;;;;;2612982;47;20443;-74
2022/12/29 04:00:05;;;;;;;2.10;1.07;;;11.50;99.90;;;;;;2612321;39;20495;-75
2022/12/29 04:02:31;;;;;;;3.20;0.90;;;11.50;99.90;;;;;;2611247;47;20197;-76
2022/12/29 04:04:57;;;;;;;1.60;0.80;;;11.50;99.90;;;;;;2611380;54;20412;-75
2022/12/29 04:07:22;;;;;;;1.60;1.10;;;11.40;99.90;;;;;;2613850;54;20213;-75
2022/12/29 04:09:48;;;;;;;2.20;1.00;;;11.50;99.90;;;;;;2613684;47;20872;-74
2022/12/29 04:12:14;;;;;;;2.07;1.30;;;11.50;99.90;;;;;;2611289;54;20162;-74
2022/12/29 04:14:40;;;;;;;1.87;1.00;;;11.50;99.90;;;;;;2612474;47;20175;-75
2022/12/29 04:17:05;;;;;;;2.23;1.17;;;11.50;99.90;;;;;;2613678;54;20522;-75
2022/12/29 04:19:31;;;;;;;1.80;0.90;;;11.50;99.90;;;;;;2613094;47;20177;-74
2022/12/29 04:21:57;;;;;;;1.83;0.93;;;11.40;99.90;;;;;;2613584;46;20159;-74
2022/12/29 04:24:22;;;;;;;1.87;1.03;;;11.40;99.90;;;;;;2613655;47;20636;-75
2022/12/29 04:26:48;;;;;;;2.07;1.17;;;11.60;99.90;;;;;;2612810;47;20170;-74
2022/12/29 04:29:13;;;;;;;3.00;1.13;;;11.60;99.90;;;;;;2611067;54;20212;-74
2022/12/29 04:31:39;;;;;;;2.43;0.87;;;11.60;99.90;;;;;;2612701;54;20227;-74
2022/12/29 04:34:05;;;;;;;2.17;0.93;;;11.70;99.90;;;;;;2612266;54;20270;-75
2022/12/29 04:36:30;;;;;;;1.60;0.80;;;11.80;99.90;;;;;;2613249;54;20153;-75
2022/12/29 04:38:57;;;;;;;3.33;1.17;;;11.80;99.90;;;;;;2613255;39;20396;-75
2022/12/29 04:41:23;;;;;;;2.90;1.53;;;11.80;99.90;;;;;;2613739;54;20154;-75
2022/12/29 04:43:49;;;;;;;2.10;0.73;;;11.80;99.90;;;;;;2614755;39;20794;-75
2022/12/29 04:46:14;;;;;;;1.77;0.87;;;11.90;99.90;;;;;;2613964;54;20503;-74
2022/12/29 04:48:40;;;;;;;2.43;0.80;;;11.90;99.90;;;;;;2614013;54;20161;-75
2022/12/29 04:51:06;;;;;;;2.20;1.13;;;11.90;99.90;;;;;;2615401;46;20261;-75
2022/12/29 04:53:31;;;;;;;2.93;0.70;;;11.90;99.90;;;;;;2614548;54;20155;-75
2022/12/29 04:55:57;;;;;;;1.50;0.80;;;12.10;99.90;;;;;;2614612;54;20162;-75
2022/12/29 04:58:23;;;;;;;1.60;1.00;;;12.10;99.90;;;;;;2615722;54;20175;-75
2022/12/29 05:00:49;;;;;;;2.80;1.00;;;12.10;99.90;;;;;;2613896;54;20265;-75
2022/12/29 05:03:15;;;;;;;1.50;0.67;;;12.10;99.90;;;;;;2613947;54;20151;-75
2022/12/29 05:05:41;;;;;;;3.83;1.43;;;12.10;99.90;;;;;;2614942;39;21128;-75
2022/12/29 05:08:06;;;;;;;2.43;1.10;;;12.20;99.90;;;;;;2614111;54;20158;-75
2022/12/29 05:10:32;;;;;;;2.63;1.10;;;12.20;99.90;;;;;;2613738;47;20442;-74
2022/12/29 05:12:58;;;;;;;1.50;0.70;;;12.10;99.90;;;;;;2615049;54;20158;-76
2022/12/29 05:15:23;;;;;;;1.73;1.10;;;12.30;99.90;;;;;;2614800;54;20158;-75
2022/12/29 05:17:49;;;;;;;1.87;1.23;;;12.40;99.90;;;;;;2614141;47;20693;-74
2022/12/29 05:20:15;;;;;;;2.67;1.40;;;12.40;99.90;;;;;;2614006;47;20250;-75
2022/12/29 05:22:41;;;;;;;1.60;1.20;;;12.50;99.90;;;;;;2615200;46;20209;-74
2022/12/29 05:25:07;;;;;;;13.77;1.43;;;12.40;99.90;;;;;;2613957;46;20431;-75
2022/12/29 05:27:32;;;;;;;2.20;1.47;;;12.40;99.90;;;;;;2615091;46;20258;-75
2022/12/29 05:29:58;;;;;;;1.80;1.20;;;12.50;99.90;;;;;;2611252;47;20526;-74
2022/12/29 05:32:24;;;;;;;2.60;1.20;;;12.50;99.90;;;;;;2613761;54;20201;-74
2022/12/29 05:34:49;;;;;;;2.27;1.77;;;12.50;99.90;;;;;;2614701;54;20189;-74
2022/12/29 05:37:15;;;;;;;1.93;1.10;;;12.50;99.90;;;;;;2615064;54;20162;-76
2022/12/29 05:39:41;;;;;;;1.90;1.40;;;12.50;99.90;;;;;;2614840;54;20166;-75
2022/12/29 05:42:06;;;;;;;3.50;1.50;;;12.50;99.90;;;;;;2615804;54;20282;-77
2022/12/29 05:44:32;;;;;;;1.70;1.40;;;12.60;99.90;;;;;;2614482;54;20154;-76
2022/12/29 05:46:58;;;;;;;3.70;1.57;;;12.50;99.90;;;;;;2614685;54;20158;-74
2022/12/29 05:49:23;;;;;;;3.10;1.50;;;12.50;99.90;;;;;;2614410;39;20906;-75
2022/12/29 05:51:49;;;;;;;2.00;1.47;;;12.40;99.90;;;;;;2613671;54;20171;-74
2022/12/29 05:54:15;;;;;;;2.30;1.80;;;12.00;99.90;;;;;;2613166;47;20155;-75
2022/12/29 05:56:40;;;;;;;2.93;1.80;;;11.90;99.90;;;;;;2614503;39;20559;-74
2022/12/29 05:59:06;;;;;;;3.20;2.10;;;11.70;99.90;;;;;;2612810;54;20233;-75
2022/12/29 06:01:33;;;;;;;3.23;1.80;;;11.60;99.90;;;;;;2611773;54;20174;-75
2022/12/29 06:03:58;;;;;;;4.67;2.23;;;11.40;99.90;;;;;;2611515;54;20166;-75
2022/12/29 06:06:24;;;;;;;2.60;1.80;;;11.40;99.90;;;;;;2611510;54;21330;-75
2022/12/29 06:08:50;;;;;;;2.93;1.83;;;11.40;99.90;;;;;;2613624;54;20258;-75
2022/12/29 06:11:15;;;;;;;2.50;2.10;;;11.30;99.90;;;;;;2614579;39;20572;-76
2022/12/29 06:13:42;;;;;;;2.30;1.53;;;11.40;99.90;;;;;;2612437;54;20151;-76
2022/12/29 06:16:08;;;;;;;2.23;1.77;;;11.60;99.90;;;;;;2614054;54;20278;-76
2022/12/29 06:18:34;;;;;;;2.17;1.97;;;11.60;99.90;;;;;;2612735;39;20879;-76
2022/12/29 06:21:01;;;;;;;2.67;1.93;;;11.60;99.90;;;;;;2614905;54;20427;-75
2022/12/29 06:23:27;;;;;;;3.50;2.03;;;11.70;99.90;;;;;;2611070;39;20217;-76
2022/12/29 06:25:53;;;;;;;3.50;1.50;;;11.70;99.90;;;;;;2613436;47;20423;-74
2022/12/29 06:28:18;;;;;;;4.47;1.57;;;11.70;99.90;;;;;;2614208;54;20439;-73
2022/12/29 06:30:45;;;;;;;3.70;1.60;;;11.60;99.90;;;;;;2613356;54;20175;-74
2022/12/29 06:33:11;;;;;;;2.03;1.50;;;11.60;99.90;;;;;;2613661;47;20254;-74
2022/12/29 06:35:37;;;;;;;1.80;1.23;;;11.50;99.90;;;;;;2614361;39;20684;-75
2022/12/29 06:38:03;;;;;;;3.83;1.90;;;11.50;99.90;;;;;;2612123;54;20943;-75
2022/12/29 06:40:29;;;;;;;2.67;1.70;;;11.60;99.90;;;;;;2613625;54;20154;-75
2022/12/29 06:42:54;;;;;;;3.40;1.57;;;11.80;99.90;;;;;;2614441;54;20177;-76
2022/12/29 06:45:20;;;;;;;5.03;1.60;;;11.70;99.90;;;;;;2613936;47;20435;-75
2022/12/29 06:47:46;;;;;;;4.53;1.70;;;11.80;99.90;;;;;;2614300;54;20154;-75
2022/12/29 06:50:11;;;;;;;8.23;2.83;;;11.80;99.90;;;;;;2615063;54;20182;-77
2022/12/29 06:52:37;;;;;;;2.03;1.50;;;11.80;99.90;;;;;;2614616;54;20178;-77
2022/12/29 06:55:03;;;;;;;3.13;1.90;;;11.90;99.90;;;;;;2612153;47;20164;-78
2022/12/29 06:57:29;;;;;;;4.50;1.80;;;11.90;99.90;;;;;;2614098;54;20178;-78
2022/12/29 06:59:57;;;;;;;7.57;2.17;;;12.00;99.90;;;;;;2613439;54;20451;-78
2022/12/29 07:02:25;;;;;;;2.70;2.00;;;12.00;99.90;;;;;;2612603;47;20205;-77
2022/12/29 07:04:52;;;;;;;4.70;1.80;;;12.00;99.90;;;;;;2613855;54;20431;-77
2022/12/29 07:07:18;;;;;;;2.30;1.67;;;12.00;99.90;;;;;;2613398;54;20423;-77
2022/12/29 07:09:45;;;;;;;7.20;2.43;;;11.90;99.90;;;;;;2612770;47;21018;-80
2022/12/29 07:12:24;;;;;;;1.80;1.37;;;11.90;99.90;;;;;;2612993;39;20778;-80
2022/12/29 07:14:52;;;;;;;3.27;1.70;;;12.00;99.90;;;;;;2612838;54;20430;-81
2022/12/29 07:17:17;;;;;;;3.37;2.57;;;12.00;99.90;;;;;;2614353;54;20428;-81
2022/12/29 07:19:44;;;;;;;3.90;2.17;;;11.90;99.90;;;;;;2614916;39;21176;-81
2022/12/29 07:22:10;;;;;;;2.87;1.80;;;11.90;99.90;;;;;;2614977;54;20162;-80
2022/12/29 07:24:35;;;;;;;2.43;2.23;;;12.00;99.90;;;;;;2612152;46;20450;-80
2022/12/29 07:27:01;;;;;;;2.27;1.90;;;12.00;99.90;;;;;;2613475;54;20186;-79
2022/12/29 07:29:27;;;;;;;3.77;2.00;;;11.90;99.90;;;;;;2614054;54;20166;-79
2022/12/29 07:31:52;;;;;;;3.83;2.10;;;11.90;99.90;;;;;;2615133;54;20286;-78
2022/12/29 07:34:18;;;;;;;3.10;2.00;;;11.80;99.90;;;;;;2611857;54;20162;-79
2022/12/29 07:36:44;;;;;;;6.33;2.00;;;11.90;99.90;;;;;;2612910;54;20170;-78
2022/12/29 07:39:09;;;;;;;2.90;1.87;;;11.90;99.90;;;;;;2614080;54;20201;-79
2022/12/29 07:41:35;;;;;;;2.43;1.83;;;11.90;99.90;;;;;;2613821;54;20155;-80
2022/12/29 07:44:01;;;;;;;5.70;2.47;;;11.90;99.90;;;;;;2612204;54;20667;-80
2022/12/29 07:46:27;;;;;;;3.67;3.00;;;11.70;99.90;;;;;;2614451;31;20774;-80
2022/12/29 07:48:52;;;;;;;2.87;1.70;;;11.80;99.90;;;;;;2612548;54;20157;-76
2022/12/29 07:51:18;;;;;;;6.60;2.27;;;11.80;99.90;;;;;;2613957;54;20445;-76
2022/12/29 07:53:44;;;;;;;4.43;2.13;;;11.90;99.90;;;;;;2613585;54;20322;-76
2022/12/29 07:56:09;;;;;;;4.37;2.40;;;11.90;99.90;;;;;;2612852;54;20182;-77
2022/12/29 07:58:35;;;;;;;2.80;2.03;;;11.90;99.90;;;;;;2613292;54;20186;-77
2022/12/29 08:01:00;;;;;;;3.57;2.17;;;11.80;99.90;;;;;;2610597;54;20246;-76
2022/12/29 08:03:26;;;;;;;6.20;2.80;;;11.90;99.90;;;;;;2609770;54;20163;-76
2022/12/29 08:05:52;;;;;;;4.93;2.47;;;11.80;99.90;;;;;;2610298;47;20173;-76
2022/12/29 08:08:18;;;;;;;5.57;2.47;;;11.80;99.90;;;;;;2610644;47;20254;-78
2022/12/29 08:10:43;;;;;;;6.90;2.70;;;11.80;99.90;;;;;;2612706;54;20432;-78
2022/12/29 08:13:09;;;;;;;4.53;2.37;;;11.80;99.90;;;;;;2611945;47;20226;-78
2022/12/29 08:15:36;;;;;;;8.43;3.00;;;11.80;99.90;;;;;;2611163;54;20196;-76
2022/12/29 08:18:03;;;;;;;7.13;2.70;;;11.80;99.90;;;;;;2611228;39;20860;-76
2022/12/29 08:20:29;;;;;;;5.23;3.63;;;11.90;99.90;;;;;;2610310;54;20463;-76
2022/12/29 08:22:55;;;;;;;3.13;2.70;;;11.90;99.90;;;;;;2611288;54;20428;-75
2022/12/29 08:25:20;;;;;;;4.40;2.23;;;11.80;99.90;;;;;;2609392;54;20166;-75
2022/12/29 08:27:46;;;;;;;6.50;2.77;;;11.80;99.90;;;;;;2609998;54;20991;-75
2022/12/29 08:30:12;;;;;;;2.60;2.40;;;11.70;99.90;;;;;;2611009;54;20419;-75
2022/12/29 08:32:38;;;;;;;3.10;2.60;;;11.80;99.90;;;;;;2612623;47;20289;-75
2022/12/29 08:35:04;;;;;;;3.00;2.73;;;11.80;99.90;;;;;;2613541;39;20743;-76
2022/12/29 08:37:30;;;;;;;5.43;2.90;;;11.80;99.90;;;;;;2613469;54;20190;-76
2022/12/29 08:39:55;;;;;;;4.53;3.03;;;11.90;99.90;;;;;;2613022;54;20408;-80
2022/12/29 08:42:21;;;;;;;6.97;3.87;;;11.80;99.90;;;;;;2614135;39;20595;-80
2022/12/29 08:44:47;;;;;;;3.13;2.80;;;11.80;99.90;;;;;;2613860;47;20162;-78
2022/12/29 08:47:12;;;;;;;4.20;3.33;;;11.90;99.90;;;;;;2613321;54;20254;-80
2022/12/29 08:49:38;;;;;;;3.90;3.20;;;11.80;99.90;;;;;;2613570;47;20158;-80
2022/12/29 08:52:04;;;;;;;4.90;2.90;;;11.80;99.90;;;;;;2613768;39;20563;-80
2022/12/29 08:54:30;;;;;;;4.93;2.93;;;11.80;99.90;;;;;;2612796;47;20163;-82
2022/12/29 08:56:55;;;;;;;7.00;3.07;;;11.80;99.90;;;;;;2613926;54;20451;-81
2022/12/29 08:59:21;;;;;;;7.97;2.87;;;11.70;99.90;;;;;;2612729;54;20314;-78
2022/12/29 09:01:47;;;;;;;3.90;2.60;;;11.70;99.90;;;;;;2613577;54;20417;-77
2022/12/29 09:04:12;;;;;;;5.70;3.07;;;11.60;99.90;;;;;;2612852;54;20197;-77
2022/12/29 09:06:38;;;;;;;6.03;3.33;;;11.50;99.90;;;;;;2612126;54;20158;-78
2022/12/29 09:09:04;;;;;;;3.70;2.80;;;11.40;99.90;;;;;;2611254;54;20353;-79
2022/12/29 09:11:29;;;;;;;9.63;3.40;;;11.90;99.90;;;;;;2612602;54;20155;-79
2022/12/29 09:13:55;;;;;;;3.50;2.60;;;12.20;99.90;;;;;;2612858;54;20162;-80
2022/12/29 09:16:23;;;;;;;10.07;2.90;;;11.90;99.90;;;;;;2614199;54;20162;-80
2022/12/29 09:18:49;;;;;;;3.23;2.77;;;11.70;99.90;;;;;;2613950;54;20659;-77
2022/12/29 09:21:15;;;;;;;4.40;3.33;;;11.70;99.90;;;;;;2611375;54;20450;-76
2022/12/29 09:23:41;;;;;;;3.43;2.90;;;12.00;99.90;;;;;;2612746;54;20431;-77
2022/12/29 09:26:07;;;;;;;3.37;3.10;;;12.20;99.90;;;;;;2612849;47;20159;-76
2022/12/29 09:28:33;;;;;;;5.83;3.90;;;12.40;99.90;;;;;;2612856;54;21007;-80
2022/12/29 09:30:59;;;;;;;7.27;3.40;;;12.50;99.90;;;;;;2615159;54;20419;-81
2022/12/29 09:33:25;;;;;;;5.87;3.43;;;12.50;99.90;;;;;;2615050;54;20173;-80
2022/12/29 09:36:00;;;;;;;7.03;3.50;;;12.60;99.90;;;;;;2615382;54;20483;-79
2022/12/29 09:38:27;;;;;;;8.10;3.63;;;12.30;99.90;;;;;;2613273;54;20415;-77
2022/12/29 09:41:05;;;;;;;4.43;3.00;;;11.90;99.90;;;;;;2612800;54;20407;-77
2022/12/29 09:43:52;;;;;;;3.13;2.93;;;11.80;99.90;;;;;;2613450;47;20402;-76
2022/12/29 09:46:34;;;;;;;3.80;3.07;;;11.80;99.90;;;;;;2613657;54;20427;-77
2022/12/29 09:49:23;;;;;;;4.20;3.50;;;11.90;99.90;;;;;;2612614;54;20546;-81
2022/12/29 09:51:56;;;;;;;5.70;3.27;;;11.80;99.90;;;;;;2612018;39;21264;-80
2022/12/29 09:54:46;;;;;;;5.83;3.50;;;11.80;99.90;;;;;;2612187;54;20416;-78
2022/12/29 09:57:19;;;;;;;5.37;3.23;;;11.80;99.90;;;;;;2611898;54;20443;-76
2022/12/29 09:59:48;;;;;;;3.80;3.30;;;11.70;99.90;;;;;;2612108;54;20470;-76
2022/12/29 10:02:58;;;;;;;7.07;3.60;;;11.90;99.90;;;;;;2611253;54;20427;-77
2022/12/29 10:05:55;;;;;;;10.63;3.67;;;11.80;99.90;;;;;;2612263;39;20833;-77
2022/12/29 10:08:44;;;;;;;6.23;3.67;;;11.70;99.90;;;;;;2610706;54;20466;-77
2022/12/29 10:11:38;;;;;;;4.37;3.97;;;11.70;99.90;;;;;;2610303;54;20659;-77
2022/12/29 10:14:25;;;;;;;7.67;3.77;;;11.70;99.90;;;;;;2610086;54;20482;-80
2022/12/29 10:17:05;;;;;;;12.50;4.03;;;11.70;99.90;;;;;;2611166;54;20440;-80
2022/12/29 10:20:02;;;;;;;4.20;3.80;;;11.70;99.90;;;;;;2610763;47;20505;-76
2022/12/29 10:22:58;;;;;;;5.23;3.83;;;11.80;99.90;;;;;;2611393;54;20549;-77
2022/12/29 10:25:28;;;;;;;6.37;3.80;;;11.80;99.90;;;;;;2609738;54;20419;-75
2022/12/29 10:27:57;;;;;;;6.00;3.60;;;11.80;99.90;;;;;;2610764;47;20423;-76
2022/12/29 10:30:27;;;;;;;3.57;3.17;;;11.90;99.90;;;;;;2613216;54;20636;-75
2022/12/29 10:32:57;;;;;;;7.37;3.23;;;11.90;99.90;;;;;;2612881;54;20412;-75
2022/12/29 10:35:33;;;;;;;5.63;3.30;;;11.90;99.90;;;;;;2611287;54;20424;-78
2022/12/29 10:38:23;;;;;;;4.50;4.10;;;12.10;98.70;;;;;;2612744;39;21010;-77
2022/12/29 10:41:00;;;;;;;4.30;3.60;;;12.10;96.20;;;;;;2612229;54;20435;-77
2022/12/29 10:43:28;;;;;;;7.70;4.63;;;12.10;97.90;;;;;;2611863;54;20419;-74
2022/12/29 10:46:02;;;;;;;6.70;4.27;;;12.10;93.90;;;;;;2612292;47;20419;-76
2022/12/29 10:48:34;;;;;;;5.50;4.40;;;12.00;91.90;;;;;;2613013;54;20450;-75
2022/12/29 10:51:04;;;;;;;9.47;4.20;;;11.90;92.70;;;;;;2612878;54;20424;-75
2022/12/29 10:53:42;;;;;;;5.50;3.70;;;11.90;93.30;;;;;;2613771;39;20816;-79
2022/12/29 10:56:37;;;;;;;5.03;3.97;;;11.80;92.20;;;;;;2614016;54;20447;-80
2022/12/29 10:59:31;;;;;;;5.67;3.73;;;11.80;93.20;;;;;;2612938;54;20497;-79
2022/12/29 11:02:06;;;;;;;5.83;4.67;;;11.80;91.80;;;;;;2614070;54;20447;-78
2022/12/29 11:05:08;;;;;;;7.40;4.13;;;11.90;91.10;;;;;;2612913;54;20423;-76
2022/12/29 11:07:37;;;;;;;6.77;4.30;;;11.80;93.30;;;;;;2611354;54;20419;-75
2022/12/29 11:10:20;;;;;;;4.57;3.97;;;11.90;92.90;;;;;;2611460;54;20412;-78
2022/12/29 11:13:22;;;;;;;5.37;3.70;;;11.90;91.80;;;;;;2610733;54;20422;-78
2022/12/29 11:15:49;;;;;;;6.33;4.30;;;11.90;90.90;;;;;;2611631;54;20492;-77
2022/12/29 11:18:33;;;;;;;5.93;3.80;;;11.80;92.60;;;;;;2612417;47;20461;-77
2022/12/29 11:21:01;;;;;;;32.83;4.40;;;11.80;92.70;;;;;;2612540;54;20518;-78
2022/12/29 11:23:36;;;;;;;5.40;3.80;;;11.80;92.60;;;;;;2612510;54;20567;-79
2022/12/29 11:26:19;;;;;;;6.73;4.43;;;11.80;91.70;;;;;;2609876;54;20412;-79
2022/12/29 11:29:21;;;;;;;5.23;3.87;;;11.80;90.30;;;;;;2611243;31;20994;-78
2022/12/29 11:31:54;;;;;;;4.13;3.77;;;11.80;91.90;;;;;;2612395;54;20435;-79
2022/12/29 11:34:19;;;;;;;8.97;4.20;;;11.80;90.50;;;;;;2612525;54;20428;-79
2022/12/29 11:36:46;;;;;;;4.37;3.97;;;11.80;89.80;;;;;;2612152;54;21003;-79
2022/12/29 11:39:33;;;;;;;6.27;3.80;;;11.90;89.90;;;;;;2611551;54;20147;-79
2022/12/29 11:41:59;;;;;;;5.80;3.70;;;11.90;90.50;;;;;;2612697;54;21100;-79
2022/12/29 11:44:26;;;;;;;5.07;4.57;;;11.80;88.70;;;;;;2612716;54;20498;-77
2022/12/29 11:46:53;;;;;;;4.47;3.80;;;11.80;90.30;;;;;;2611990;54;20523;-77
2022/12/29 11:49:23;;;;;;;4.53;4.03;;;11.80;89.60;;;;;;2612277;54;20424;-77
2022/12/29 11:51:50;;;;;;;5.97;4.10;;;11.90;87.70;;;;;;2612971;54;20404;-77
2022/12/29 11:54:22;;;;;;;6.73;4.33;;;12.00;87.20;;;;;;2614369;54;21087;-78
2022/12/29 11:56:48;;;;;;;7.13;4.23;;;12.00;84.70;;;;;;2615212;39;21182;-77
2022/12/29 11:59:36;;;;;;;7.80;4.73;;;12.10;83.10;;;;;;2614737;54;21612;-84
2022/12/29 12:02:21;;;;;;;4.17;3.87;;;12.00;84.60;;;;;;2616897;47;20419;-84
2022/12/29 12:04:49;;;;;;;4.53;4.13;;;12.10;82.90;;;;;;2617069;47;20427;-78
2022/12/29 12:07:28;;;;;;;5.27;4.80;;;12.00;86.00;;;;;;2614174;54;20431;-77
2022/12/29 12:09:58;;;;;;;5.63;3.80;;;11.90;84.60;;;;;;2613765;54;20419;-78
2022/12/29 12:12:44;;;;;;;7.80;4.23;;;11.90;85.90;;;;;;2614050;47;20420;-79
2022/12/29 12:15:36;;;;;;;6.93;4.07;;;12.10;88.10;;;;;;2612953;54;20416;-74
2022/12/29 12:18:09;;;;;;;4.77;4.10;;;12.20;81.30;;;;;;2614100;39;20818;-83
2022/12/29 12:20:42;;;;;;;15.40;4.20;;;12.50;76.70;;;;;;2613988;54;20411;-85
2022/12/29 12:23:32;;;;;;;6.00;3.93;;;12.20;74.40;;;;;;2613669;47;21068;-84
2022/12/29 12:26:30;;;;;;;5.30;4.07;;;12.60;74.80;;;;;;2613554;47;21062;-82
2022/12/29 12:29:18;;;;;;;5.13;3.87;;;12.10;76.00;;;;;;2613618;47;20447;-83
2022/12/29 12:32:11;;;;;;;5.13;4.00;;;12.00;79.10;;;;;;2614309;47;20416;-83
2022/12/29 12:34:40;;;;;;;8.03;4.80;;;11.90;81.00;;;;;;2612826;54;20408;-77
2022/12/29 12:37:15;;;;;;;3.83;3.53;;;11.80;79.90;;;;;;2613963;39;21178;-78
2022/12/29 12:40:12;;;;;;;6.73;3.90;;;11.80;81.70;;;;;;2613463;54;20403;-78
2022/12/29 16:18:15;;;;;;;5.53;3.37;;;10.80;90.30;;;;;;2613342;54;20452;-79
2022/12/29 16:20:42;;;;;;;5.77;4.00;;;10.70;87.80;;;;;;2612579;47;20477;-78
2022/12/29 16:23:24;;;;;;;8.37;4.23;;;10.60;90.80;;;;;;2612490;54;20403;-77
2022/12/29 16:25:53;;;;;;;7.40;4.40;;;10.60;90.80;;;;;;2611955;54;20442;-78
2022/12/29 16:28:22;;;;;;;6.10;3.90;;;10.50;91.70;;;;;;2612578;54;20445;-78
2022/12/29 16:30:58;;;;;;;11.93;4.73;;;10.40;92.60;;;;;;2612307;54;20419;-79
2022/12/29 16:33:38;;;;;;;6.93;3.70;;;10.50;92.30;;;;;;2613157;54;20391;-78
2022/12/29 16:36:25;;;;;;;6.63;3.77;;;10.40;94.20;;;;;;2613480;54;20415;-78
2022/12/29 16:39:17;;;;;;;7.87;3.77;;;10.30;95.00;;;;;;2612907;54;20435;-77
2022/12/29 16:41:43;;;;;;;7.70;3.63;;;10.30;95.70;;;;;;2612668;54;20478;-79
2022/12/29 16:44:29;;;;;;;4.70;3.77;;;10.20;96.70;;;;;;2611862;47;20435;-80
2022/12/29 16:47:05;;;;;;;10.73;4.67;;;10.10;98.10;;;;;;2612908;54;20153;-80
2022/12/29 16:49:32;;;;;;;16.20;4.10;;;10.10;98.80;;;;;;2612541;54;20403;-80
2022/12/29 16:51:58;;;;;;;4.50;3.70;;;10.00;99.90;;;;;;2614098;54;20565;-80
2022/12/29 16:54:30;;;;;;;5.80;3.97;;;10.10;99.30;;;;;;2609917;54;20434;-79
2022/12/29 16:56:56;;;;;;;5.63;4.47;;;10.00;99.90;;;;;;2613018;54;20410;-79
2022/12/29 16:59:29;;;;;;;5.17;3.80;;;10.00;99.90;;;;;;2612526;54;20412;-78
2022/12/29 17:01:57;;;;;;;6.13;4.03;;;10.10;99.90;;;;;;2612501;54;20395;-78
2022/12/29 17:04:22;;;;;;;6.83;5.07;;;10.00;99.90;;;;;;2611295;54;20426;-78
2022/12/29 17:06:48;;;;;;;9.70;4.13;;;10.10;99.50;;;;;;2612846;54;20412;-78
2022/12/29 17:09:22;;;;;;;5.40;3.67;;;10.10;98.70;;;;;;2609856;47;20266;-78
2022/12/29 17:11:54;;;;;;;6.30;3.50;;;10.20;97.30;;;;;;2610691;54;21174;-78
2022/12/29 17:14:41;;;;;;;3.77;3.47;;;10.20;96.60;;;;;;2610874;54;20462;-76
2022/12/29 17:17:13;;;;;;;7.10;3.87;;;10.20;96.30;;;;;;2611167;54;20423;-75